sensor_id;sensor_type;location;lat;lon;timestamp;temperature;humidity
10278;DHT22;5184;51.376;7.148;2023-10-09T00:00:06;15.00;99.90
10278;DHT22;5184;51.376;7.148;2023-10-09T00:02:38;15.00;99.90
10278;DHT22;5184;51.376;7.148;2023-10-09T00:05:05;15.00;99.90
10278;DHT22;5184;51.376;7.148;2023-10-09T00:07:32;15.00;99.90
10278;DHT22;5184;51.376;7.148;2023-10-09T00:10:00;15.00;99.90
10278;DHT22;5184;51.376;7.148;2023-10-09T00:12:26;15.00;99.90
10278;DHT22;5184;51.376;7.148;2023-10-09T00:14:53;15.00;99.90
10278;DHT22;5184;51.376;7.148;2023-10-09T00:17:20;14.90;99.90
10278;DHT22;5184;51.376;7.148;2023-10-09T00:19:47;15.00;99.90
10278;DHT22;5184;51.376;7.148;2023-10-09T00:22:15;14.90;99.90
10278;DHT22;5184;51.376;7.148;2023-10-09T00:24:43;15.00;99.90
10278;DHT22;5184;51.376;7.148;2023-10-09T00:27:09;14.90;99.90
10278;DHT22;5184;51.376;7.148;2023-10-09T00:29:39;14.90;99.90
10278;DHT22;5184;51.376;7.148;2023-10-09T00:32:08;14.80;99.90
10278;DHT22;5184;51.376;7.148;2023-10-09T00:34:40;14.80;99.90
10278;DHT22;5184;51.376;7.148;2023-10-09T00:37:07;14.80;99.90
10278;DHT22;5184;51.376;7.148;2023-10-09T00:39:33;14.80;99.90
10278;DHT22;5184;51.376;7.148;2023-10-09T00:42:11;14.90;99.90
10278;DHT22;5184;51.376;7.148;2023-10-09T00:44:40;14.90;99.90
10278;DHT22;5184;51.376;7.148;2023-10-09T00:47:06;14.90;99.90
10278;DHT22;5184;51.376;7.148;2023-10-09T00:49:33;15.00;99.90
10278;DHT22;5184;51.376;7.148;2023-10-09T00:51:59;15.00;99.90
10278;DHT22;5184;51.376;7.148;2023-10-09T00:54:27;15.00;99.90
10278;DHT22;5184;51.376;7.148;2023-10-09T00:56:53;15.00;99.90
10278;DHT22;5184;51.376;7.148;2023-10-09T00:59:21;15.10;99.90
10278;DHT22;5184;51.376;7.148;2023-10-09T01:01:48;15.10;99.90
10278;DHT22;5184;51.376;7.148;2023-10-09T01:04:31;15.10;99.90
10278;DHT22;5184;51.376;7.148;2023-10-09T01:06:58;15.00;99.90
10278;DHT22;5184;51.376;7.148;2023-10-09T01:09:31;15.00;99.90
10278;DHT22;5184;51.376;7.148;2023-10-09T01:12:04;15.00;99.90
10278;DHT22;5184;51.376;7.148;2023-10-09T01:14:30;15.00;99.90
10278;DHT22;5184;51.376;7.148;2023-10-09T01:16:57;15.00;99.90
10278;DHT22;5184;51.376;7.148;2023-10-09T01:19:24;15.00;99.90
10278;DHT22;5184;51.376;7.148;2023-10-09T01:21:51;15.10;99.90
10278;DHT22;5184;51.376;7.148;2023-10-09T01:24:17;15.10;99.90
10278;DHT22;5184;51.376;7.148;2023-10-09T01:26:45;15.10;99.90
10278;DHT22;5184;51.376;7.148;2023-10-09T01:29:17;15.10;99.90
10278;DHT22;5184;51.376;7.148;2023-10-09T01:31:44;15.10;99.90
10278;DHT22;5184;51.376;7.148;2023-10-09T01:34:11;15.10;99.90
10278;DHT22;5184;51.376;7.148;2023-10-09T01:36:39;15.10;99.90
10278;DHT22;5184;51.376;7.148;2023-10-09T01:39:06;15.10;99.90
10278;DHT22;5184;51.376;7.148;2023-10-09T01:41:33;15.10;99.90
10278;DHT22;5184;51.376;7.148;2023-10-09T01:43:59;15.10;99.90
10278;DHT22;5184;51.376;7.148;2023-10-09T01:46:27;15.10;99.90
10278;DHT22;5184;51.376;7.148;2023-10-09T01:48:53;15.10;99.90
10278;DHT22;5184;51.376;7.148;2023-10-09T01:51:20;15.00;99.90
10278;DHT22;5184;51.376;7.148;2023-10-09T01:53:47;15.00;99.90
10278;DHT22;5184;51.376;7.148;2023-10-09T01:56:13;15.00;99.90
10278;DHT22;5184;51.376;7.148;2023-10-09T01:58:41;14.90;99.90
10278;DHT22;5184;51.376;7.148;2023-10-09T02:01:08;14.80;99.90
10278;DHT22;5184;51.376;7.148;2023-10-09T02:03:36;14.80;99.90
10278;DHT22;5184;51.376;7.148;2023-10-09T02:06:02;14.80;99.90
10278;DHT22;5184;51.376;7.148;2023-10-09T02:08:30;14.70;99.90
10278;DHT22;5184;51.376;7.148;2023-10-09T02:10:57;14.70;99.90
10278;DHT22;5184;51.376;7.148;2023-10-09T02:13:24;14.70;99.90
10278;DHT22;5184;51.376;7.148;2023-10-09T02:15:52;14.70;99.90
10278;DHT22;5184;51.376;7.148;2023-10-09T02:18:19;14.70;99.90
10278;DHT22;5184;51.376;7.148;2023-10-09T02:21:06;14.70;99.90
10278;DHT22;5184;51.376;7.148;2023-10-09T02:23:39;14.60;99.90
10278;DHT22;5184;51.376;7.148;2023-10-09T02:26:21;14.60;99.90
10278;DHT22;5184;51.376;7.148;2023-10-09T02:28:52;14.70;99.90
10278;DHT22;5184;51.376;7.148;2023-10-09T02:31:19;14.70;99.90
10278;DHT22;5184;51.376;7.148;2023-10-09T02:33:46;14.70;99.90
10278;DHT22;5184;51.376;7.148;2023-10-09T02:36:13;14.70;99.90
10278;DHT22;5184;51.376;7.148;2023-10-09T02:38:40;14.80;99.90
10278;DHT22;5184;51.376;7.148;2023-10-09T02:41:06;14.80;99.90
10278;DHT22;5184;51.376;7.148;2023-10-09T02:43:48;14.80;99.90
10278;DHT22;5184;51.376;7.148;2023-10-09T02:46:18;14.80;99.90
10278;DHT22;5184;51.376;7.148;2023-10-09T02:48:46;14.80;99.90
10278;DHT22;5184;51.376;7.148;2023-10-09T02:51:20;14.80;99.90
10278;DHT22;5184;51.376;7.148;2023-10-09T02:53:47;14.80;99.90
10278;DHT22;5184;51.376;7.148;2023-10-09T02:56:14;14.80;99.90
10278;DHT22;5184;51.376;7.148;2023-10-09T02:58:41;14.80;99.90
10278;DHT22;5184;51.376;7.148;2023-10-09T03:01:11;14.80;99.90
10278;DHT22;5184;51.376;7.148;2023-10-09T03:03:37;14.90;99.90
10278;DHT22;5184;51.376;7.148;2023-10-09T03:06:04;14.90;99.90
10278;DHT22;5184;51.376;7.148;2023-10-09T03:08:31;14.90;99.90
10278;DHT22;5184;51.376;7.148;2023-10-09T03:10:58;14.90;99.90
10278;DHT22;5184;51.376;7.148;2023-10-09T03:13:24;14.90;99.90
10278;DHT22;5184;51.376;7.148;2023-10-09T03:15:51;14.90;99.90
10278;DHT22;5184;51.376;7.148;2023-10-09T03:18:18;14.90;99.90
10278;DHT22;5184;51.376;7.148;2023-10-09T03:20:46;15.00;99.90
10278;DHT22;5184;51.376;7.148;2023-10-09T03:23:13;15.00;99.90
10278;DHT22;5184;51.376;7.148;2023-10-09T03:25:40;15.00;99.90
10278;DHT22;5184;51.376;7.148;2023-10-09T03:28:06;14.90;99.90
10278;DHT22;5184;51.376;7.148;2023-10-09T03:30:33;15.00;99.90
10278;DHT22;5184;51.376;7.148;2023-10-09T03:32:59;15.00;99.90
10278;DHT22;5184;51.376;7.148;2023-10-09T03:35:26;15.00;99.90
10278;DHT22;5184;51.376;7.148;2023-10-09T03:37:55;15.00;99.90
10278;DHT22;5184;51.376;7.148;2023-10-09T03:40:23;15.00;99.90
10278;DHT22;5184;51.376;7.148;2023-10-09T03:42:51;15.00;99.90
10278;DHT22;5184;51.376;7.148;2023-10-09T03:45:19;15.00;99.90
10278;DHT22;5184;51.376;7.148;2023-10-09T03:47:45;15.00;99.90
10278;DHT22;5184;51.376;7.148;2023-10-09T03:50:12;15.00;99.90
10278;DHT22;5184;51.376;7.148;2023-10-09T03:52:39;15.00;99.90
10278;DHT22;5184;51.376;7.148;2023-10-09T03:55:07;15.10;99.90
10278;DHT22;5184;51.376;7.148;2023-10-09T03:57:33;15.10;99.90
10278;DHT22;5184;51.376;7.148;2023-10-09T04:00:01;15.20;99.90
10278;DHT22;5184;51.376;7.148;2023-10-09T04:02:28;15.20;99.90
10278;DHT22;5184;51.376;7.148;2023-10-09T04:04:55;15.20;99.90
10278;DHT22;5184;51.376;7.148;2023-10-09T04:07:23;15.20;99.90
10278;DHT22;5184;51.376;7.148;2023-10-09T04:09:50;15.20;99.90
10278;DHT22;5184;51.376;7.148;2023-10-09T04:12:17;15.20;99.90
10278;DHT22;5184;51.376;7.148;2023-10-09T04:14:46;15.10;99.90
10278;DHT22;5184;51.376;7.148;2023-10-09T04:17:14;15.10;99.90
10278;DHT22;5184;51.376;7.148;2023-10-09T04:19:56;15.10;99.90
10278;DHT22;5184;51.376;7.148;2023-10-09T04:22:28;15.00;99.90
10278;DHT22;5184;51.376;7.148;2023-10-09T04:24:56;15.00;99.90
10278;DHT22;5184;51.376;7.148;2023-10-09T04:27:24;15.00;99.90
10278;DHT22;5184;51.376;7.148;2023-10-09T04:29:50;14.90;99.90
10278;DHT22;5184;51.376;7.148;2023-10-09T04:32:18;14.90;99.90
10278;DHT22;5184;51.376;7.148;2023-10-09T04:34:45;15.00;99.90
10278;DHT22;5184;51.376;7.148;2023-10-09T04:37:15;15.00;99.90
10278;DHT22;5184;51.376;7.148;2023-10-09T04:39:44;15.00;99.90
10278;DHT22;5184;51.376;7.148;2023-10-09T04:42:13;15.00;99.90
10278;DHT22;5184;51.376;7.148;2023-10-09T04:44:45;15.00;99.90
10278;DHT22;5184;51.376;7.148;2023-10-09T04:47:17;15.00;99.90
10278;DHT22;5184;51.376;7.148;2023-10-09T04:49:44;15.00;99.90
10278;DHT22;5184;51.376;7.148;2023-10-09T04:52:22;15.00;99.90
10278;DHT22;5184;51.376;7.148;2023-10-09T04:54:54;15.10;99.90
10278;DHT22;5184;51.376;7.148;2023-10-09T04:57:27;15.10;99.90
10278;DHT22;5184;51.376;7.148;2023-10-09T04:59:53;15.10;99.90
10278;DHT22;5184;51.376;7.148;2023-10-09T05:02:21;15.10;99.90
10278;DHT22;5184;51.376;7.148;2023-10-09T05:04:47;15.10;99.90
10278;DHT22;5184;51.376;7.148;2023-10-09T05:07:14;15.10;99.90
10278;DHT22;5184;51.376;7.148;2023-10-09T05:09:46;15.10;99.90
10278;DHT22;5184;51.376;7.148;2023-10-09T05:12:20;15.20;99.90
10278;DHT22;5184;51.376;7.148;2023-10-09T05:14:47;15.20;99.90
10278;DHT22;5184;51.376;7.148;2023-10-09T05:17:14;15.10;99.90
10278;DHT22;5184;51.376;7.148;2023-10-09T05:19:43;15.10;99.90
10278;DHT22;5184;51.376;7.148;2023-10-09T05:22:10;15.10;99.90
10278;DHT22;5184;51.376;7.148;2023-10-09T05:24:53;15.20;99.90
10278;DHT22;5184;51.376;7.148;2023-10-09T05:27:20;15.20;99.90
10278;DHT22;5184;51.376;7.148;2023-10-09T05:29:47;15.20;99.90
10278;DHT22;5184;51.376;7.148;2023-10-09T05:32:14;15.20;99.90
10278;DHT22;5184;51.376;7.148;2023-10-09T05:34:43;15.20;99.90
10278;DHT22;5184;51.376;7.148;2023-10-09T05:37:14;15.20;99.90
10278;DHT22;5184;51.376;7.148;2023-10-09T05:39:44;15.20;99.90
10278;DHT22;5184;51.376;7.148;2023-10-09T05:42:10;15.20;99.90
10278;DHT22;5184;51.376;7.148;2023-10-09T05:44:37;15.20;99.90
10278;DHT22;5184;51.376;7.148;2023-10-09T05:47:09;15.20;99.90
10278;DHT22;5184;51.376;7.148;2023-10-09T05:49:41;15.20;99.90
10278;DHT22;5184;51.376;7.148;2023-10-09T05:52:12;15.20;99.90
10278;DHT22;5184;51.376;7.148;2023-10-09T05:54:44;15.30;99.90
10278;DHT22;5184;51.376;7.148;2023-10-09T05:57:16;15.30;99.90
10278;DHT22;5184;51.376;7.148;2023-10-09T05:59:49;15.40;99.90
10278;DHT22;5184;51.376;7.148;2023-10-09T06:02:23;15.50;99.90
10278;DHT22;5184;51.376;7.148;2023-10-09T06:05:04;15.50;99.90
10278;DHT22;5184;51.376;7.148;2023-10-09T06:07:31;15.50;99.90
10278;DHT22;5184;51.376;7.148;2023-10-09T06:09:58;15.50;99.90
10278;DHT22;5184;51.376;7.148;2023-10-09T06:12:25;15.50;99.90
10278;DHT22;5184;51.376;7.148;2023-10-09T06:14:57;15.50;99.90
10278;DHT22;5184;51.376;7.148;2023-10-09T06:17:24;15.50;99.90
10278;DHT22;5184;51.376;7.148;2023-10-09T06:19:50;15.50;99.90
10278;DHT22;5184;51.376;7.148;2023-10-09T06:22:17;15.50;99.90
10278;DHT22;5184;51.376;7.148;2023-10-09T06:24:46;15.60;99.90
10278;DHT22;5184;51.376;7.148;2023-10-09T06:27:21;15.50;99.90
10278;DHT22;5184;51.376;7.148;2023-10-09T06:30:10;15.60;99.90
10278;DHT22;5184;51.376;7.148;2023-10-09T06:32:41;15.60;99.90
10278;DHT22;5184;51.376;7.148;2023-10-09T06:35:15;15.70;99.90
10278;DHT22;5184;51.376;7.148;2023-10-09T06:37:46;15.70;99.90
10278;DHT22;5184;51.376;7.148;2023-10-09T06:40:32;15.70;99.90
10278;DHT22;5184;51.376;7.148;2023-10-09T06:43:09;15.70;99.90
10278;DHT22;5184;51.376;7.148;2023-10-09T06:45:37;15.80;99.90
10278;DHT22;5184;51.376;7.148;2023-10-09T06:48:09;15.70;99.90
10278;DHT22;5184;51.376;7.148;2023-10-09T06:50:42;15.80;99.90
10278;DHT22;5184;51.376;7.148;2023-10-09T06:53:24;15.80;99.90
10278;DHT22;5184;51.376;7.148;2023-10-09T06:55:51;15.90;99.90
10278;DHT22;5184;51.376;7.148;2023-10-09T06:58:19;15.90;99.90
10278;DHT22;5184;51.376;7.148;2023-10-09T07:00:49;15.80;99.90
10278;DHT22;5184;51.376;7.148;2023-10-09T07:03:21;15.90;99.90
10278;DHT22;5184;51.376;7.148;2023-10-09T07:05:48;15.90;99.90
10278;DHT22;5184;51.376;7.148;2023-10-09T07:08:15;15.90;99.90
10278;DHT22;5184;51.376;7.148;2023-10-09T07:10:47;15.90;99.90
10278;DHT22;5184;51.376;7.148;2023-10-09T07:13:14;16.00;99.90
10278;DHT22;5184;51.376;7.148;2023-10-09T07:15:42;16.00;99.90
10278;DHT22;5184;51.376;7.148;2023-10-09T07:18:14;15.90;99.90
10278;DHT22;5184;51.376;7.148;2023-10-09T07:20:45;15.90;99.90
10278;DHT22;5184;51.376;7.148;2023-10-09T07:23:12;15.90;99.90
10278;DHT22;5184;51.376;7.148;2023-10-09T07:25:41;15.90;99.90
10278;DHT22;5184;51.376;7.148;2023-10-09T07:28:09;15.90;99.90
10278;DHT22;5184;51.376;7.148;2023-10-09T07:30:50;15.90;99.90
10278;DHT22;5184;51.376;7.148;2023-10-09T07:33:16;15.90;99.90
10278;DHT22;5184;51.376;7.148;2023-10-09T07:35:45;15.90;99.90
10278;DHT22;5184;51.376;7.148;2023-10-09T07:38:17;15.90;99.90
10278;DHT22;5184;51.376;7.148;2023-10-09T07:40:43;16.00;99.90
10278;DHT22;5184;51.376;7.148;2023-10-09T07:43:16;16.20;99.90
10278;DHT22;5184;51.376;7.148;2023-10-09T07:45:44;16.20;99.90
10278;DHT22;5184;51.376;7.148;2023-10-09T07:48:31;16.30;99.90
10278;DHT22;5184;51.376;7.148;2023-10-09T07:53:37;16.50;99.90
10278;DHT22;5184;51.376;7.148;2023-10-09T07:56:03;16.60;99.90
10278;DHT22;5184;51.376;7.148;2023-10-09T07:58:33;16.60;99.90
10278;DHT22;5184;51.376;7.148;2023-10-09T08:01:00;16.70;99.90
10278;DHT22;5184;51.376;7.148;2023-10-09T08:03:33;16.80;99.90
10278;DHT22;5184;51.376;7.148;2023-10-09T08:05:59;16.80;99.90
10278;DHT22;5184;51.376;7.148;2023-10-09T08:08:31;16.80;99.90
10278;DHT22;5184;51.376;7.148;2023-10-09T08:11:12;16.70;99.90
10278;DHT22;5184;51.376;7.148;2023-10-09T08:13:45;16.60;99.90
10278;DHT22;5184;51.376;7.148;2023-10-09T08:16:15;16.50;99.90
10278;DHT22;5184;51.376;7.148;2023-10-09T08:18:44;16.60;99.90
10278;DHT22;5184;51.376;7.148;2023-10-09T08:21:12;16.60;99.90
10278;DHT22;5184;51.376;7.148;2023-10-09T08:26:28;16.60;99.90
10278;DHT22;5184;51.376;7.148;2023-10-09T08:28:55;16.70;99.90
10278;DHT22;5184;51.376;7.148;2023-10-09T08:31:21;16.70;99.90
10278;DHT22;5184;51.376;7.148;2023-10-09T08:33:53;16.80;99.90
10278;DHT22;5184;51.376;7.148;2023-10-09T08:36:25;16.80;99.90
10278;DHT22;5184;51.376;7.148;2023-10-09T08:38:52;16.90;99.90
10278;DHT22;5184;51.376;7.148;2023-10-09T08:41:18;16.90;99.90
10278;DHT22;5184;51.376;7.148;2023-10-09T08:43:49;16.90;99.90
10278;DHT22;5184;51.376;7.148;2023-10-09T08:46:15;16.90;99.90
10278;DHT22;5184;51.376;7.148;2023-10-09T08:48:42;16.90;99.90
10278;DHT22;5184;51.376;7.148;2023-10-09T08:51:08;16.90;99.90
10278;DHT22;5184;51.376;7.148;2023-10-09T08:53:35;16.90;99.90
10278;DHT22;5184;51.376;7.148;2023-10-09T08:56:02;16.80;99.90
10278;DHT22;5184;51.376;7.148;2023-10-09T08:58:29;16.90;99.90
10278;DHT22;5184;51.376;7.148;2023-10-09T09:00:57;16.80;99.90
10278;DHT22;5184;51.376;7.148;2023-10-09T09:03:25;16.80;99.90
10278;DHT22;5184;51.376;7.148;2023-10-09T09:05:57;16.80;99.90
10278;DHT22;5184;51.376;7.148;2023-10-09T09:08:25;16.80;99.90
10278;DHT22;5184;51.376;7.148;2023-10-09T09:10:58;16.80;99.90
10278;DHT22;5184;51.376;7.148;2023-10-09T09:13:24;16.90;99.90
10278;DHT22;5184;51.376;7.148;2023-10-09T09:15:51;16.90;99.90
10278;DHT22;5184;51.376;7.148;2023-10-09T09:18:18;17.00;99.90
10278;DHT22;5184;51.376;7.148;2023-10-09T09:20:45;17.00;99.90
10278;DHT22;5184;51.376;7.148;2023-10-09T09:23:12;17.10;99.90
10278;DHT22;5184;51.376;7.148;2023-10-09T09:25:40;17.00;99.90
10278;DHT22;5184;51.376;7.148;2023-10-09T09:28:06;17.20;99.90
10278;DHT22;5184;51.376;7.148;2023-10-09T09:30:32;17.30;99.90
10278;DHT22;5184;51.376;7.148;2023-10-09T09:33:30;17.40;99.90
10278;DHT22;5184;51.376;7.148;2023-10-09T09:38:20;17.60;99.90
10278;DHT22;5184;51.376;7.148;2023-10-09T09:40:47;17.60;99.90
10278;DHT22;5184;51.376;7.148;2023-10-09T09:43:14;17.70;99.90
10278;DHT22;5184;51.376;7.148;2023-10-09T09:45:40;17.80;99.90
10278;DHT22;5184;51.376;7.148;2023-10-09T09:48:08;17.80;99.90
10278;DHT22;5184;51.376;7.148;2023-10-09T09:50:36;17.90;99.90
10278;DHT22;5184;51.376;7.148;2023-10-09T09:53:03;17.80;99.90
10278;DHT22;5184;51.376;7.148;2023-10-09T09:55:33;17.80;99.90
10278;DHT22;5184;51.376;7.148;2023-10-09T09:57:57;17.80;99.90
10278;DHT22;5184;51.376;7.148;2023-10-09T10:00:25;17.90;99.90
10278;DHT22;5184;51.376;7.148;2023-10-09T10:02:54;17.90;99.90
10278;DHT22;5184;51.376;7.148;2023-10-09T10:05:20;18.00;99.90
10278;DHT22;5184;51.376;7.148;2023-10-09T10:07:47;18.10;99.90
10278;DHT22;5184;51.376;7.148;2023-10-09T10:10:34;18.30;99.90
10278;DHT22;5184;51.376;7.148;2023-10-09T10:13:01;18.30;99.90
10278;DHT22;5184;51.376;7.148;2023-10-09T10:16:00;18.40;99.90
10278;DHT22;5184;51.376;7.148;2023-10-09T10:18:30;18.30;99.90
10278;DHT22;5184;51.376;7.148;2023-10-09T10:21:11;18.30;99.90
10278;DHT22;5184;51.376;7.148;2023-10-09T10:23:48;18.30;99.90
10278;DHT22;5184;51.376;7.148;2023-10-09T10:26:18;18.20;99.90
10278;DHT22;5184;51.376;7.148;2023-10-09T10:28:44;18.40;99.90
10278;DHT22;5184;51.376;7.148;2023-10-09T10:31:12;18.40;99.90
10278;DHT22;5184;51.376;7.148;2023-10-09T10:36:17;18.30;99.90
10278;DHT22;5184;51.376;7.148;2023-10-09T10:38:44;18.30;99.90
10278;DHT22;5184;51.376;7.148;2023-10-09T10:41:12;18.40;99.90
10278;DHT22;5184;51.376;7.148;2023-10-09T10:43:40;18.40;99.90
10278;DHT22;5184;51.376;7.148;2023-10-09T10:46:10;18.50;99.90
10278;DHT22;5184;51.376;7.148;2023-10-09T10:48:40;18.50;99.90
10278;DHT22;5184;51.376;7.148;2023-10-09T10:51:06;18.50;99.90
10278;DHT22;5184;51.376;7.148;2023-10-09T10:53:33;18.50;99.90
10278;DHT22;5184;51.376;7.148;2023-10-09T10:56:01;18.50;99.90
10278;DHT22;5184;51.376;7.148;2023-10-09T10:58:34;18.50;99.90
10278;DHT22;5184;51.376;7.148;2023-10-09T11:01:03;18.50;99.90
10278;DHT22;5184;51.376;7.148;2023-10-09T11:03:44;18.50;99.90
10278;DHT22;5184;51.376;7.148;2023-10-09T11:06:24;18.50;99.90
10278;DHT22;5184;51.376;7.148;2023-10-09T11:08:45;18.60;99.90
10278;DHT22;5184;51.376;7.148;2023-10-09T11:11:12;18.60;99.90
10278;DHT22;5184;51.376;7.148;2023-10-09T11:13:38;18.70;99.90
10278;DHT22;5184;51.376;7.148;2023-10-09T11:16:05;18.70;99.90
10278;DHT22;5184;51.376;7.148;2023-10-09T11:18:39;18.80;99.90
10278;DHT22;5184;51.376;7.148;2023-10-09T11:21:06;18.70;99.90
10278;DHT22;5184;51.376;7.148;2023-10-09T11:23:48;18.70;99.90
10278;DHT22;5184;51.376;7.148;2023-10-09T11:26:19;18.70;99.90
10278;DHT22;5184;51.376;7.148;2023-10-09T11:31:26;18.80;99.90
10278;DHT22;5184;51.376;7.148;2023-10-09T11:33:53;18.80;99.90
10278;DHT22;5184;51.376;7.148;2023-10-09T11:36:21;18.90;99.90
10278;DHT22;5184;51.376;7.148;2023-10-09T11:39:02;18.80;99.90
10278;DHT22;5184;51.376;7.148;2023-10-09T11:41:39;18.90;99.90
10278;DHT22;5184;51.376;7.148;2023-10-09T11:44:01;18.90;99.90
10278;DHT22;5184;51.376;7.148;2023-10-09T11:46:27;18.90;99.90
10278;DHT22;5184;51.376;7.148;2023-10-09T11:49:05;18.90;99.90
10278;DHT22;5184;51.376;7.148;2023-10-09T11:51:36;18.90;99.90
10278;DHT22;5184;51.376;7.148;2023-10-09T11:54:03;18.80;99.90
10278;DHT22;5184;51.376;7.148;2023-10-09T11:56:30;18.90;99.90
10278;DHT22;5184;51.376;7.148;2023-10-09T11:58:57;18.90;99.90
10278;DHT22;5184;51.376;7.148;2023-10-09T12:01:24;19.00;99.90
10278;DHT22;5184;51.376;7.148;2023-10-09T12:03:51;19.00;99.90
10278;DHT22;5184;51.376;7.148;2023-10-09T12:06:20;19.10;99.90
10278;DHT22;5184;51.376;7.148;2023-10-09T12:08:47;19.20;99.90
10278;DHT22;5184;51.376;7.148;2023-10-09T12:11:15;19.20;99.90
10278;DHT22;5184;51.376;7.148;2023-10-09T12:13:42;19.10;99.90
10278;DHT22;5184;51.376;7.148;2023-10-09T12:16:10;19.10;99.90
10278;DHT22;5184;51.376;7.148;2023-10-09T12:18:36;19.10;99.90
10278;DHT22;5184;51.376;7.148;2023-10-09T12:21:03;19.10;99.90
10278;DHT22;5184;51.376;7.148;2023-10-09T12:23:29;19.10;99.90
10278;DHT22;5184;51.376;7.148;2023-10-09T12:25:57;19.10;99.90
10278;DHT22;5184;51.376;7.148;2023-10-09T12:28:24;19.10;99.90
10278;DHT22;5184;51.376;7.148;2023-10-09T12:30:51;19.00;99.90
10278;DHT22;5184;51.376;7.148;2023-10-09T12:33:18;19.10;99.90
10278;DHT22;5184;51.376;7.148;2023-10-09T12:35:45;19.10;99.90
10278;DHT22;5184;51.376;7.148;2023-10-09T12:38:13;19.20;99.90
10278;DHT22;5184;51.376;7.148;2023-10-09T12:40:39;19.20;99.90
10278;DHT22;5184;51.376;7.148;2023-10-09T12:43:06;19.30;99.90
10278;DHT22;5184;51.376;7.148;2023-10-09T12:45:33;19.40;99.90
10278;DHT22;5184;51.376;7.148;2023-10-09T12:48:00;19.50;99.90
10278;DHT22;5184;51.376;7.148;2023-10-09T12:50:26;19.50;99.90
10278;DHT22;5184;51.376;7.148;2023-10-09T12:52:55;19.50;99.90
10278;DHT22;5184;51.376;7.148;2023-10-09T12:55:21;19.40;99.90
10278;DHT22;5184;51.376;7.148;2023-10-09T12:57:48;19.30;99.90
10278;DHT22;5184;51.376;7.148;2023-10-09T13:00:14;19.30;99.90
10278;DHT22;5184;51.376;7.148;2023-10-09T13:02:41;19.40;99.90
10278;DHT22;5184;51.376;7.148;2023-10-09T13:05:08;19.40;99.90
10278;DHT22;5184;51.376;7.148;2023-10-09T13:07:35;19.60;99.90
10278;DHT22;5184;51.376;7.148;2023-10-09T13:10:02;19.50;99.90
10278;DHT22;5184;51.376;7.148;2023-10-09T13:12:34;19.60;99.90
10278;DHT22;5184;51.376;7.148;2023-10-09T13:15:09;19.60;99.90
10278;DHT22;5184;51.376;7.148;2023-10-09T13:17:36;19.70;99.90
10278;DHT22;5184;51.376;7.148;2023-10-09T13:20:03;19.70;99.90
10278;DHT22;5184;51.376;7.148;2023-10-09T13:22:31;19.70;99.90
10278;DHT22;5184;51.376;7.148;2023-10-09T13:24:58;19.70;99.90
10278;DHT22;5184;51.376;7.148;2023-10-09T13:27:24;19.70;99.90
10278;DHT22;5184;51.376;7.148;2023-10-09T13:29:51;19.70;99.90
10278;DHT22;5184;51.376;7.148;2023-10-09T13:32:18;19.80;99.90
10278;DHT22;5184;51.376;7.148;2023-10-09T13:34:45;19.80;99.90
10278;DHT22;5184;51.376;7.148;2023-10-09T13:37:12;19.90;99.90
10278;DHT22;5184;51.376;7.148;2023-10-09T13:39:40;19.90;99.90
10278;DHT22;5184;51.376;7.148;2023-10-09T13:42:05;20.00;99.90
10278;DHT22;5184;51.376;7.148;2023-10-09T13:44:33;20.10;99.90
10278;DHT22;5184;51.376;7.148;2023-10-09T13:47:01;20.00;99.90
10278;DHT22;5184;51.376;7.148;2023-10-09T13:49:27;20.00;99.90
10278;DHT22;5184;51.376;7.148;2023-10-09T13:51:56;19.90;99.90
10278;DHT22;5184;51.376;7.148;2023-10-09T13:54:23;19.90;99.90
10278;DHT22;5184;51.376;7.148;2023-10-09T13:57:04;19.90;99.90
10278;DHT22;5184;51.376;7.148;2023-10-09T13:59:32;19.90;99.90
10278;DHT22;5184;51.376;7.148;2023-10-09T14:01:58;19.90;99.90
10278;DHT22;5184;51.376;7.148;2023-10-09T14:04:25;19.80;99.90
10278;DHT22;5184;51.376;7.148;2023-10-09T14:06:54;19.80;99.90
10278;DHT22;5184;51.376;7.148;2023-10-09T14:09:24;19.60;99.90
10278;DHT22;5184;51.376;7.148;2023-10-09T14:11:58;19.60;99.90
10278;DHT22;5184;51.376;7.148;2023-10-09T14:14:40;19.50;99.90
10278;DHT22;5184;51.376;7.148;2023-10-09T14:17:07;19.50;99.90
10278;DHT22;5184;51.376;7.148;2023-10-09T14:19:39;19.40;99.90
10278;DHT22;5184;51.376;7.148;2023-10-09T14:22:04;19.50;99.90
10278;DHT22;5184;51.376;7.148;2023-10-09T14:24:31;19.50;99.90
10278;DHT22;5184;51.376;7.148;2023-10-09T14:26:59;19.50;99.90
10278;DHT22;5184;51.376;7.148;2023-10-09T14:29:26;19.40;99.90
10278;DHT22;5184;51.376;7.148;2023-10-09T14:31:53;19.40;99.90
10278;DHT22;5184;51.376;7.148;2023-10-09T14:34:19;19.40;99.90
10278;DHT22;5184;51.376;7.148;2023-10-09T14:36:46;19.40;99.90
10278;DHT22;5184;51.376;7.148;2023-10-09T14:39:13;19.30;99.90
10278;DHT22;5184;51.376;7.148;2023-10-09T14:41:40;19.30;99.90
10278;DHT22;5184;51.376;7.148;2023-10-09T14:44:07;19.30;99.90
10278;DHT22;5184;51.376;7.148;2023-10-09T14:46:33;19.30;99.90
10278;DHT22;5184;51.376;7.148;2023-10-09T14:49:00;19.30;99.90
10278;DHT22;5184;51.376;7.148;2023-10-09T14:51:26;19.30;99.90
10278;DHT22;5184;51.376;7.148;2023-10-09T14:53:54;19.20;99.90
10278;DHT22;5184;51.376;7.148;2023-10-09T14:56:20;19.20;99.90
10278;DHT22;5184;51.376;7.148;2023-10-09T14:58:47;19.20;99.90
10278;DHT22;5184;51.376;7.148;2023-10-09T15:01:14;19.10;99.90
10278;DHT22;5184;51.376;7.148;2023-10-09T15:03:42;19.20;99.90
10278;DHT22;5184;51.376;7.148;2023-10-09T15:06:08;19.10;99.90
10278;DHT22;5184;51.376;7.148;2023-10-09T15:08:35;19.20;99.90
10278;DHT22;5184;51.376;7.148;2023-10-09T15:11:02;19.20;99.90
10278;DHT22;5184;51.376;7.148;2023-10-09T15:13:29;19.20;99.90
10278;DHT22;5184;51.376;7.148;2023-10-09T15:15:56;19.20;99.90
10278;DHT22;5184;51.376;7.148;2023-10-09T15:18:24;19.20;99.90
10278;DHT22;5184;51.376;7.148;2023-10-09T15:20:50;19.20;99.90
10278;DHT22;5184;51.376;7.148;2023-10-09T15:23:17;19.10;99.90
10278;DHT22;5184;51.376;7.148;2023-10-09T15:25:43;19.10;99.90
10278;DHT22;5184;51.376;7.148;2023-10-09T15:28:11;19.10;99.90
10278;DHT22;5184;51.376;7.148;2023-10-09T15:30:38;19.10;99.90
10278;DHT22;5184;51.376;7.148;2023-10-09T15:33:05;19.00;99.90
10278;DHT22;5184;51.376;7.148;2023-10-09T15:35:31;19.00;99.90
10278;DHT22;5184;51.376;7.148;2023-10-09T15:38:01;19.00;99.90
10278;DHT22;5184;51.376;7.148;2023-10-09T15:40:27;19.00;99.90
10278;DHT22;5184;51.376;7.148;2023-10-09T15:42:54;19.00;99.90
10278;DHT22;5184;51.376;7.148;2023-10-09T15:45:21;19.00;99.90
10278;DHT22;5184;51.376;7.148;2023-10-09T15:47:48;19.00;99.90
10278;DHT22;5184;51.376;7.148;2023-10-09T15:50:14;19.00;99.90
10278;DHT22;5184;51.376;7.148;2023-10-09T15:52:42;18.90;99.90
10278;DHT22;5184;51.376;7.148;2023-10-09T15:55:09;18.90;99.90
10278;DHT22;5184;51.376;7.148;2023-10-09T15:57:35;18.90;99.90
10278;DHT22;5184;51.376;7.148;2023-10-09T16:00:03;18.80;99.90
10278;DHT22;5184;51.376;7.148;2023-10-09T16:02:31;18.80;99.90
10278;DHT22;5184;51.376;7.148;2023-10-09T16:04:57;18.80;99.90
10278;DHT22;5184;51.376;7.148;2023-10-09T16:07:24;18.90;99.90